Blue Ridge Highway — 3FEY4 — position and weather

sailwx.info

Track history (hours):
 
Tides and Currents Weather Stations Pressure Air Temp Water Temp Dewpoint Dewpoint Depression Visibility Wind Speed Wind Dir Waves Ship Positions

Blue Ridge Highway

Last reported at 2015-Sep-02 18:32 UTC. Time now 2015-Sep-02 19:03 UTC.
Position N 51°18' E 003°14'.

Length 180 m; draft 8.2 m.

Type: Cargo ship. MMSI: 355558000.

Date/timePositionNaut miles runAvg speedWind from/ knotsBaromVisibWave heightAir tempDewpointWater temp
2015-Sep-02 18:32N 51°18' E 003°14'0 0.0
2015-Sep-02 17:33N 51°18' E 003°14'2 1.8
2015-Sep-02 16:33N 51°20' E 003°13'7 6.7
2015-Sep-02 15:33N 51°24' E 003°05'1010.3
2015-Sep-02 14:33N 51°22' E 002°49'9 9.2
2015-Sep-02 13:34N 51°22' E 002°34'2 2.4
2015-Sep-02 12:32N 51°25' E 002°34'0 0.0
2015-Sep-02 11:32N 51°25' E 002°34'0 0.0
2015-Sep-02 10:32N 51°25' E 002°34'0 0.0
2015-Sep-02 09:32N 51°25' E 002°34'0 0.0
2015-Sep-02 08:14N 51°25' E 002°34'0 0.0
2015-Sep-02 07:32N 51°25' E 002°34'0 0.1
2015-Sep-02 06:29N 51°25' E 002°34'0 0.0
2015-Sep-02 05:32N 51°25' E 002°34'4 3.7
2015-Sep-02 04:33N 51°22' E 002°30'1616.4
2015-Sep-02 03:34N 51°15' E 002°07'2019.7
2015-Sep-02 02:33N 51°04' E 001°41'2020.2
2015-Sep-02 01:33N 50°46' E 001°25'4518.1
2015-Sep-01 23:06N 50°22' E 000°25'21815.6
2015-Sep-01 09:06N 49°06' W 004°50'60615.6
2015-Aug-30 18:11N 39°39' W 009°50'1117.4
2015-Aug-30 17:33N 39°28' W 009°50'1717.1
2015-Aug-30 16:33N 39°11' W 009°51'1717.1
2015-Aug-30 15:33N 38°54' W 009°51'1616.2
2015-Aug-30 14:34N 38°38' W 009°50'1716.6
2015-Aug-30 13:33N 38°21' W 009°45'1716.9
2015-Aug-30 12:34N 38°05' W 009°40'1717.0
2015-Aug-30 11:33N 37°48' W 009°35'1717.1
2015-Aug-30 10:33N 37°32' W 009°30'1716.7
2015-Aug-30 09:33N 37°16' W 009°24'1816.7
2015-Aug-30 08:30N 36°58' W 009°19'3115.7
2015-Aug-30 06:31N 36°40' W 008°49'38516.0
2015-Aug-29 06:26N 37°08' W 000°49'2217.5
2015-Aug-29 05:09N 37°20' W 000°25'1117.0
2015-Aug-29 04:29N 37°27' W 000°14'5117.4
2015-Aug-29 01:32N 37°54' E 000°41'1817.5
2015-Aug-29 00:31N 38°04' E 000°60'5217.5
2015-Aug-28 21:33N 38°32' E 001°55'1717.3
2015-Aug-28 20:33N 38°42' E 002°14'1717.4
2015-Aug-28 19:33N 38°51' E 002°33'1717.2
2015-Aug-28 18:33N 39°00' E 002°51'1716.9
2015-Aug-28 17:33N 39°09' E 003°10'1716.8
2015-Aug-28 16:33N 39°19' E 003°28'1616.6
2015-Aug-28 15:34N 39°27' E 003°46'1716.7
2015-Aug-28 14:32N 39°37' E 004°04'1716.7
2015-Aug-28 13:33N 39°46' E 004°22'5517.1
2015-Aug-28 10:20N 40°24' E 005°14'3717.4
2015-Aug-28 08:12N 40°49' E 005°50'10417.1
2015-Aug-28 02:07N 42°01' E 007°30'1117.3
2015-Aug-28 01:29N 42°09' E 007°41'1617.3
2015-Aug-28 00:33N 42°20' E 007°57'1717.3
2015-Aug-27 23:34N 42°31' E 008°13'1717.0
2015-Aug-27 22:34N 42°43' E 008°30'1717.2
2015-Aug-27 21:33N 42°55' E 008°47'1717.4
2015-Aug-27 20:34N 43°07' E 009°05'1716.7
2015-Aug-27 19:34N 43°14' E 009°25'1716.7
2015-Aug-27 18:34N 43°17' E 009°48'1616.3
2015-Aug-27 17:34N 43°26' E 010°06'1111.4
2015-Aug-27 16:33N 43°34' E 010°18'1 0.3
2015-Aug-27 14:23N 43°35' E 010°18'0 0.0
2015-Aug-27 13:23N 43°35' E 010°18'0 0.0
2015-Aug-27 12:32N 43°35' E 010°18'0 0.0
2015-Aug-27 11:32N 43°35' E 010°18'4 4.2
2015-Aug-27 10:33N 43°31' E 010°15'1 1.3
2015-Aug-27 09:32N 43°30' E 010°16'0 0.1
2015-Aug-27 08:32N 43°30' E 010°16'0 0.0
2015-Aug-27 07:32N 43°30' E 010°16'0 0.0
2015-Aug-27 05:11N 43°30' E 010°16'0 0.0
2015-Aug-27 03:17N 43°30' E 010°16'0 0.0
2015-Aug-27 02:29N 43°30' E 010°16'0 0.0
2015-Aug-26 23:05N 43°30' E 010°16'0 0.0
2015-Aug-26 22:29N 43°30' E 010°16'0 0.0
2015-Aug-26 21:29N 43°30' E 010°16'0 0.0
2015-Aug-26 20:29N 43°30' E 010°16'0 0.0
2015-Aug-26 19:29N 43°30' E 010°16'1 1.4
2015-Aug-26 18:33N 43°29' E 010°14'1615.8
2015-Aug-26 17:33N 43°18' E 009°58'1717.0
2015-Aug-26 16:33N 43°06' E 009°42'5316.3
2015-Aug-26 13:18N 42°15' E 009°60'28416.9
2015-Aug-25 20:33N 37°48' E 012°05'1616.5
2015-Aug-25 19:33N 37°37' E 012°20'1716.6
2015-Aug-25 18:33N 37°26' E 012°36'1716.3
2015-Aug-25 17:32N 37°14' E 012°51'1716.3
2015-Aug-25 16:31N 37°03' E 013°06'1616.5
2015-Aug-25 15:33N 36°53' E 013°21'1716.6
2015-Aug-25 14:33N 36°41' E 013°36'1716.6
2015-Aug-25 13:32N 36°30' E 013°52'1716.9
2015-Aug-25 12:33N 36°19' E 014°07'1716.9
2015-Aug-25 11:33N 36°07' E 014°22'1717.1
2015-Aug-25 10:33N 35°56' E 014°38'1616.1
2015-Aug-25 09:33N 35°41' E 014°45'1717.0
2015-Aug-25 08:33N 35°24' E 014°48'1918.8
2015-Aug-25 07:33N 35°05' E 014°51'1616.3
2015-Aug-25 06:33N 34°49' E 014°54'1717.4
2015-Aug-25 05:33N 34°32' E 014°56'1817.6
2015-Aug-25 04:33N 34°14' E 014°60'1818.0
2015-Aug-25 03:33N 33°57' E 015°03'1817.6
2015-Aug-25 02:33N 33°39' E 015°06'1817.7
2015-Aug-25 01:33N 33°22' E 015°09'1817.7
2015-Aug-25 00:33N 33°04' E 015°12'1717.5
2015-Aug-24 23:33N 32°47' E 015°15'1917.3
2015-Aug-24 22:28N 32°28' E 015°18'8 8.9
2015-Aug-24 21:33N 32°22' E 015°13'0 0.0
2015-Aug-24 20:32N 32°22' E 015°13'0 0.0
2015-Aug-24 19:32N 32°22' E 015°13'0 0.0
2015-Aug-24 18:32N 32°22' E 015°13'0 0.0
2015-Aug-24 17:29N 32°22' E 015°13'0 0.0
2015-Aug-24 16:32N 32°22' E 015°13'0 0.0
2015-Aug-24 15:32N 32°22' E 015°13'0 0.0
2015-Aug-24 14:32N 32°22' E 015°13'0 0.0
2015-Aug-24 13:32N 32°22' E 015°13'0 0.0
2015-Aug-24 12:29N 32°22' E 015°13'0 0.0
2015-Aug-24 11:23N 32°22' E 015°13'3 0.4
2015-Aug-24 03:15N 32°23' E 015°17'0 0.0
2015-Aug-24 02:24N 32°23' E 015°17'0 0.0
2015-Aug-24 01:19N 32°23' E 015°17'2 3.1
2015-Aug-24 00:32N 32°22' E 015°19'1812.8
2015-Aug-23 23:08N 32°40' E 015°16'1117.0
2015-Aug-23 22:27N 32°45' E 015°28'  
Track history (hours):
 
Tides and Currents Weather Stations Pressure Air Temp Water Temp Dewpoint Dewpoint Depression Visibility Wind Speed Wind Dir Waves Ship Positions

Blue Ridge Highway

Last reported at 2015-Sep-02 18:32 UTC. Time now 2015-Sep-02 19:03 UTC.
Position N 51°18' E 003°14'.

Length 180 m; draft 8.2 m.

Type: Cargo ship. MMSI: 355558000.

Date/timePositionNaut miles runAvg speedWind from/ knotsBaromVisibWave heightAir tempDewpointWater temp
2015-Sep-02 18:32N 51°18' E 003°14'0 0.0
2015-Sep-02 17:33N 51°18' E 003°14'2 1.8
2015-Sep-02 16:33N 51°20' E 003°13'7 6.7
2015-Sep-02 15:33N 51°24' E 003°05'1010.3
2015-Sep-02 14:33N 51°22' E 002°49'9 9.2
2015-Sep-02 13:34N 51°22' E 002°34'2 2.4
2015-Sep-02 12:32N 51°25' E 002°34'0 0.0
2015-Sep-02 11:32N 51°25' E 002°34'0 0.0
2015-Sep-02 10:32N 51°25' E 002°34'0 0.0
2015-Sep-02 09:32N 51°25' E 002°34'0 0.0
2015-Sep-02 08:14N 51°25' E 002°34'0 0.0
2015-Sep-02 07:32N 51°25' E 002°34'0 0.1
2015-Sep-02 06:29N 51°25' E 002°34'0 0.0
2015-Sep-02 05:32N 51°25' E 002°34'4 3.7
2015-Sep-02 04:33N 51°22' E 002°30'1616.4
2015-Sep-02 03:34N 51°15' E 002°07'2019.7
2015-Sep-02 02:33N 51°04' E 001°41'2020.2
2015-Sep-02 01:33N 50°46' E 001°25'4518.1
2015-Sep-01 23:06N 50°22' E 000°25'21815.6
2015-Sep-01 09:06N 49°06' W 004°50'60615.6
2015-Aug-30 18:11N 39°39' W 009°50'1117.4
2015-Aug-30 17:33N 39°28' W 009°50'1717.1
2015-Aug-30 16:33N 39°11' W 009°51'1717.1
2015-Aug-30 15:33N 38°54' W 009°51'1616.2
2015-Aug-30 14:34N 38°38' W 009°50'1716.6
2015-Aug-30 13:33N 38°21' W 009°45'1716.9
2015-Aug-30 12:34N 38°05' W 009°40'1717.0
2015-Aug-30 11:33N 37°48' W 009°35'1717.1
2015-Aug-30 10:33N 37°32' W 009°30'1716.7
2015-Aug-30 09:33N 37°16' W 009°24'1816.7
2015-Aug-30 08:30N 36°58' W 009°19'3115.7
2015-Aug-30 06:31N 36°40' W 008°49'38516.0
2015-Aug-29 06:26N 37°08' W 000°49'2217.5
2015-Aug-29 05:09N 37°20' W 000°25'1117.0
2015-Aug-29 04:29N 37°27' W 000°14'5117.4
2015-Aug-29 01:32N 37°54' E 000°41'1817.5
2015-Aug-29 00:31N 38°04' E 000°60'5217.5
2015-Aug-28 21:33N 38°32' E 001°55'1717.3
2015-Aug-28 20:33N 38°42' E 002°14'1717.4
2015-Aug-28 19:33N 38°51' E 002°33'1717.2
2015-Aug-28 18:33N 39°00' E 002°51'1716.9
2015-Aug-28 17:33N 39°09' E 003°10'1716.8
2015-Aug-28 16:33N 39°19' E 003°28'1616.6
2015-Aug-28 15:34N 39°27' E 003°46'1716.7
2015-Aug-28 14:32N 39°37' E 004°04'1716.7
2015-Aug-28 13:33N 39°46' E 004°22'5517.1
2015-Aug-28 10:20N 40°24' E 005°14'3717.4
2015-Aug-28 08:12N 40°49' E 005°50'10417.1
2015-Aug-28 02:07N 42°01' E 007°30'1117.3
2015-Aug-28 01:29N 42°09' E 007°41'1617.3
2015-Aug-28 00:33N 42°20' E 007°57'1717.3
2015-Aug-27 23:34N 42°31' E 008°13'1717.0
2015-Aug-27 22:34N 42°43' E 008°30'1717.2
2015-Aug-27 21:33N 42°55' E 008°47'1717.4
2015-Aug-27 20:34N 43°07' E 009°05'1716.7
2015-Aug-27 19:34N 43°14' E 009°25'1716.7
2015-Aug-27 18:34N 43°17' E 009°48'1616.3
2015-Aug-27 17:34N 43°26' E 010°06'1111.4
2015-Aug-27 16:33N 43°34' E 010°18'1 0.3
2015-Aug-27 14:23N 43°35' E 010°18'0 0.0
2015-Aug-27 13:23N 43°35' E 010°18'0 0.0
2015-Aug-27 12:32N 43°35' E 010°18'0 0.0
2015-Aug-27 11:32N 43°35' E 010°18'4 4.2
2015-Aug-27 10:33N 43°31' E 010°15'1 1.3
2015-Aug-27 09:32N 43°30' E 010°16'0 0.1
2015-Aug-27 08:32N 43°30' E 010°16'0 0.0
2015-Aug-27 07:32N 43°30' E 010°16'0 0.0
2015-Aug-27 05:11N 43°30' E 010°16'0 0.0
2015-Aug-27 03:17N 43°30' E 010°16'0 0.0
2015-Aug-27 02:29N 43°30' E 010°16'0 0.0
2015-Aug-26 23:05N 43°30' E 010°16'0 0.0
2015-Aug-26 22:29N 43°30' E 010°16'0 0.0
2015-Aug-26 21:29N 43°30' E 010°16'0 0.0
2015-Aug-26 20:29N 43°30' E 010°16'0 0.0
2015-Aug-26 19:29N 43°30' E 010°16'1 1.4
2015-Aug-26 18:33N 43°29' E 010°14'1615.8
2015-Aug-26 17:33N 43°18' E 009°58'1717.0
2015-Aug-26 16:33N 43°06' E 009°42'5316.3
2015-Aug-26 13:18N 42°15' E 009°60'28416.9
2015-Aug-25 20:33N 37°48' E 012°05'1616.5
2015-Aug-25 19:33N 37°37' E 012°20'1716.6
2015-Aug-25 18:33N 37°26' E 012°36'1716.3
2015-Aug-25 17:32N 37°14' E 012°51'1716.3
2015-Aug-25 16:31N 37°03' E 013°06'1616.5
2015-Aug-25 15:33N 36°53' E 013°21'1716.6
2015-Aug-25 14:33N 36°41' E 013°36'1716.6
2015-Aug-25 13:32N 36°30' E 013°52'1716.9
2015-Aug-25 12:33N 36°19' E 014°07'1716.9
2015-Aug-25 11:33N 36°07' E 014°22'1717.1
2015-Aug-25 10:33N 35°56' E 014°38'1616.1
2015-Aug-25 09:33N 35°41' E 014°45'1717.0
2015-Aug-25 08:33N 35°24' E 014°48'1918.8
2015-Aug-25 07:33N 35°05' E 014°51'1616.3
2015-Aug-25 06:33N 34°49' E 014°54'1717.4
2015-Aug-25 05:33N 34°32' E 014°56'1817.6
2015-Aug-25 04:33N 34°14' E 014°60'1818.0
2015-Aug-25 03:33N 33°57' E 015°03'1817.6
2015-Aug-25 02:33N 33°39' E 015°06'1817.7
2015-Aug-25 01:33N 33°22' E 015°09'1817.7
2015-Aug-25 00:33N 33°04' E 015°12'1717.5
2015-Aug-24 23:33N 32°47' E 015°15'1917.3
2015-Aug-24 22:28N 32°28' E 015°18'8 8.9
2015-Aug-24 21:33N 32°22' E 015°13'0 0.0
2015-Aug-24 20:32N 32°22' E 015°13'0 0.0
2015-Aug-24 19:32N 32°22' E 015°13'0 0.0
2015-Aug-24 18:32N 32°22' E 015°13'0 0.0
2015-Aug-24 17:29N 32°22' E 015°13'0 0.0
2015-Aug-24 16:32N 32°22' E 015°13'0 0.0
2015-Aug-24 15:32N 32°22' E 015°13'0 0.0
2015-Aug-24 14:32N 32°22' E 015°13'0 0.0
2015-Aug-24 13:32N 32°22' E 015°13'0 0.0
2015-Aug-24 12:29N 32°22' E 015°13'0 0.0
2015-Aug-24 11:23N 32°22' E 015°13'3 0.4
2015-Aug-24 03:15N 32°23' E 015°17'0 0.0
2015-Aug-24 02:24N 32°23' E 015°17'0 0.0
2015-Aug-24 01:19N 32°23' E 015°17'2 3.1
2015-Aug-24 00:32N 32°22' E 015°19'1812.8
2015-Aug-23 23:08N 32°40' E 015°16'1117.0
2015-Aug-23 22:27N 32°45' E 015°28'  

Dump ship's entire track history